SIS225 EDNY-EDDV
Flight info
| Callsign | SIS225 |
|---|---|
| Flight time | 0h 57m |
| Altitude | 22000 |
| Route | ALAGO1W ALAGO Z1 ETAGO Z3 ABUMO N850 WRB WRB1X |
| Aircraft | C750/M-SBDE3FGHRWXY/S |
Departure
| Time | 2026-04-24 10:43 |
|---|---|
| Airport | Bodensee Airport Friedrichshafen (EDNY) |
Arrival
| Time | 2026-04-24 11:40 |
|---|---|
| Airport | Hannover Airport (EDDV) |
| Time | Latitude | Longitude | Altitude | Speed | Heading |
|---|---|---|---|---|---|
| 2026-04-24 10:25 | 47.67334 | 9.52307 | 1365 ft | 0 kts | 197° |
| 2026-04-24 10:37 | 47.67334 | 9.52306 | 1365 ft | 0 kts | 199° |
| 2026-04-24 10:37 | 47.67336 | 9.52295 | 1365 ft | 2 kts | 303° |
| 2026-04-24 10:38 | 47.67344 | 9.52284 | 1365 ft | 4 kts | 325° |
| 2026-04-24 10:38 | 47.67407 | 9.52336 | 1365 ft | 13 kts | 57° |
| 2026-04-24 10:38 | 47.67464 | 9.52478 | 1365 ft | 16 kts | 60° |
| 2026-04-24 10:38 | 47.67480 | 9.52517 | 1365 ft | 0 kts | 60° |
| 2026-04-24 10:41 | 47.67492 | 9.52549 | 1365 ft | 6 kts | 60° |
| 2026-04-24 10:41 | 47.67529 | 9.52594 | 1368 ft | 9 kts | 360° |
| 2026-04-24 10:41 | 47.67591 | 9.52551 | 1373 ft | 14 kts | 330° |
| 2026-04-24 10:42 | 47.67649 | 9.52485 | 1373 ft | 5 kts | 272° |
| 2026-04-24 10:42 | 47.67644 | 9.52465 | 1373 ft | 0 kts | 240° |
| 2026-04-24 10:42 | 47.67585 | 9.52311 | 1373 ft | 65 kts | 240° |
| 2026-04-24 10:43 | 47.67179 | 9.51275 | 1460 ft | 146 kts | 239° |
| 2026-04-24 10:43 | 47.66638 | 9.49864 | 2027 ft | 167 kts | 240° |
| 2026-04-24 10:43 | 47.66068 | 9.48276 | 2677 ft | 184 kts | 242° |
| 2026-04-24 10:43 | 47.65419 | 9.46509 | 3265 ft | 205 kts | 241° |
| 2026-04-24 10:44 | 47.64628 | 9.44610 | 3832 ft | 224 kts | 237° |
| 2026-04-24 10:44 | 47.63805 | 9.42643 | 4719 ft | 225 kts | 239° |
| 2026-04-24 10:44 | 47.63094 | 9.40555 | 5427 ft | 232 kts | 252° |
| 2026-04-24 10:44 | 47.63180 | 9.38188 | 6140 ft | 232 kts | 290° |
| 2026-04-24 10:45 | 47.64117 | 9.36284 | 6880 ft | 232 kts | 323° |
| 2026-04-24 10:45 | 47.65487 | 9.35066 | 7730 ft | 228 kts | 332° |
| 2026-04-24 10:45 | 47.66877 | 9.33917 | 8591 ft | 229 kts | 331° |
| 2026-04-24 10:45 | 47.68280 | 9.32773 | 9435 ft | 231 kts | 335° |
| 2026-04-24 10:46 | 47.69876 | 9.32501 | 10101 ft | 235 kts | 7° |
| 2026-04-24 10:46 | 47.71379 | 9.33437 | 10769 ft | 238 kts | 35° |
| 2026-04-24 10:46 | 47.72576 | 9.35148 | 11451 ft | 239 kts | 44° |
| 2026-04-24 10:46 | 47.73741 | 9.36925 | 12099 ft | 241 kts | 43° |
| 2026-04-24 10:47 | 47.74928 | 9.38706 | 12738 ft | 244 kts | 43° |
| 2026-04-24 10:47 | 47.76129 | 9.40502 | 13386 ft | 246 kts | 43° |
| 2026-04-24 10:47 | 47.77336 | 9.42314 | 14030 ft | 248 kts | 43° |
| 2026-04-24 10:47 | 47.78555 | 9.44146 | 14583 ft | 250 kts | 44° |
| 2026-04-24 10:48 | 47.79922 | 9.45733 | 15021 ft | 253 kts | 25° |
| 2026-04-24 10:48 | 47.81634 | 9.46288 | 15579 ft | 253 kts | 4° |
| 2026-04-24 10:48 | 47.83406 | 9.46292 | 16129 ft | 255 kts | 0° |
| 2026-04-24 10:48 | 47.85166 | 9.46264 | 16669 ft | 258 kts | 1° |
| 2026-04-24 10:49 | 47.86969 | 9.46258 | 17229 ft | 260 kts | 1° |
| 2026-04-24 10:49 | 47.88793 | 9.46260 | 17806 ft | 264 kts | 1° |
| 2026-04-24 10:49 | 47.90637 | 9.46258 | 18354 ft | 266 kts | 1° |
| 2026-04-24 10:49 | 47.92503 | 9.46252 | 18881 ft | 269 kts | 1° |
| 2026-04-24 10:50 | 47.94386 | 9.46247 | 19404 ft | 271 kts | 1° |
| 2026-04-24 10:50 | 47.96283 | 9.46243 | 19942 ft | 274 kts | 1° |
| 2026-04-24 10:50 | 47.98201 | 9.46239 | 20481 ft | 276 kts | 1° |
| 2026-04-24 10:50 | 48.00130 | 9.46234 | 21024 ft | 278 kts | 1° |
| 2026-04-24 10:51 | 48.02071 | 9.46131 | 21528 ft | 282 kts | 356° |
| 2026-04-24 10:51 | 48.03974 | 9.45637 | 22034 ft | 282 kts | 350° |
| 2026-04-24 10:51 | 48.06003 | 9.45018 | 22191 ft | 310 kts | 351° |
| 2026-04-24 10:51 | 48.08239 | 9.44483 | 22199 ft | 340 kts | 353° |
| 2026-04-24 10:52 | 48.10636 | 9.43965 | 22201 ft | 367 kts | 353° |
| 2026-04-24 10:52 | 48.13247 | 9.43343 | 22201 ft | 392 kts | 352° |
| 2026-04-24 10:52 | 48.15975 | 9.42654 | 22185 ft | 400 kts | 352° |
| 2026-04-24 10:52 | 48.18755 | 9.41977 | 22193 ft | 408 kts | 352° |
| 2026-04-24 10:53 | 48.21563 | 9.41317 | 22191 ft | 409 kts | 352° |
| 2026-04-24 10:53 | 48.24377 | 9.40643 | 22191 ft | 410 kts | 352° |
| 2026-04-24 10:53 | 48.27194 | 9.39955 | 22188 ft | 410 kts | 352° |
| 2026-04-24 10:53 | 48.30006 | 9.39271 | 22186 ft | 409 kts | 352° |
| 2026-04-24 10:54 | 48.32818 | 9.38594 | 22186 ft | 409 kts | 352° |
| 2026-04-24 10:54 | 48.35624 | 9.37918 | 22187 ft | 409 kts | 352° |
| 2026-04-24 10:54 | 48.38444 | 9.37231 | 22187 ft | 409 kts | 352° |
| 2026-04-24 10:54 | 48.41254 | 9.36547 | 22187 ft | 409 kts | 352° |
| 2026-04-24 10:55 | 48.44064 | 9.35863 | 22185 ft | 409 kts | 352° |
| 2026-04-24 10:55 | 48.46875 | 9.35180 | 22185 ft | 409 kts | 352° |
| 2026-04-24 10:55 | 48.49686 | 9.34494 | 22184 ft | 409 kts | 352° |
| 2026-04-24 10:55 | 48.52495 | 9.33808 | 22203 ft | 409 kts | 352° |
| 2026-04-24 10:56 | 48.55313 | 9.33119 | 22207 ft | 409 kts | 352° |
| 2026-04-24 10:56 | 48.58090 | 9.32440 | 22187 ft | 409 kts | 352° |
| 2026-04-24 10:56 | 48.60899 | 9.31752 | 22187 ft | 409 kts | 352° |
| 2026-04-24 10:56 | 48.63713 | 9.31062 | 22187 ft | 409 kts | 352° |
| 2026-04-24 10:57 | 48.66526 | 9.30370 | 22185 ft | 409 kts | 352° |
| 2026-04-24 10:57 | 48.69340 | 9.29680 | 22186 ft | 409 kts | 352° |
| 2026-04-24 10:57 | 48.72155 | 9.28986 | 22184 ft | 409 kts | 351° |
| 2026-04-24 10:57 | 48.74960 | 9.28295 | 22182 ft | 409 kts | 351° |
| 2026-04-24 10:58 | 48.77771 | 9.27603 | 22186 ft | 409 kts | 351° |
| 2026-04-24 10:58 | 48.80581 | 9.26908 | 22186 ft | 409 kts | 351° |
| 2026-04-24 10:58 | 48.83358 | 9.26221 | 22187 ft | 409 kts | 351° |
| 2026-04-24 10:58 | 48.86165 | 9.25527 | 22188 ft | 409 kts | 351° |
| 2026-04-24 10:59 | 48.88977 | 9.24831 | 22188 ft | 409 kts | 351° |
| 2026-04-24 10:59 | 48.91786 | 9.24134 | 22188 ft | 409 kts | 351° |
| 2026-04-24 10:59 | 48.94610 | 9.23432 | 22186 ft | 412 kts | 351° |
| 2026-04-24 10:59 | 48.97428 | 9.22730 | 22187 ft | 410 kts | 351° |
| 2026-04-24 11:00 | 49.00250 | 9.22029 | 22185 ft | 410 kts | 351° |
| 2026-04-24 11:00 | 49.03071 | 9.21327 | 22188 ft | 410 kts | 351° |
| 2026-04-24 11:00 | 49.05891 | 9.20623 | 22188 ft | 410 kts | 351° |
| 2026-04-24 11:00 | 49.08710 | 9.19918 | 22190 ft | 409 kts | 351° |
| 2026-04-24 11:01 | 49.11530 | 9.19213 | 22192 ft | 410 kts | 351° |
| 2026-04-24 11:01 | 49.14345 | 9.18509 | 22191 ft | 411 kts | 351° |
| 2026-04-24 11:01 | 49.17163 | 9.17803 | 22194 ft | 410 kts | 351° |
| 2026-04-24 11:01 | 49.19977 | 9.17096 | 22194 ft | 410 kts | 351° |
| 2026-04-24 11:02 | 49.22758 | 9.16397 | 22197 ft | 411 kts | 351° |
| 2026-04-24 11:02 | 49.25618 | 9.15678 | 22199 ft | 410 kts | 351° |
| 2026-04-24 11:02 | 49.28327 | 9.14997 | 22200 ft | 410 kts | 351° |
| 2026-04-24 11:02 | 49.31147 | 9.14286 | 22199 ft | 410 kts | 351° |
| 2026-04-24 11:03 | 49.33920 | 9.13586 | 22198 ft | 411 kts | 351° |
| 2026-04-24 11:03 | 49.36732 | 9.12873 | 22191 ft | 399 kts | 351° |
| 2026-04-24 11:03 | 49.39472 | 9.12174 | 22196 ft | 405 kts | 351° |
| 2026-04-24 11:03 | 49.42256 | 9.11471 | 22196 ft | 407 kts | 351° |
| 2026-04-24 11:04 | 49.45058 | 9.10767 | 22204 ft | 406 kts | 351° |
| 2026-04-24 11:04 | 49.47859 | 9.10055 | 22205 ft | 406 kts | 351° |
| 2026-04-24 11:04 | 49.50628 | 9.09348 | 22206 ft | 409 kts | 351° |
| 2026-04-24 11:04 | 49.53448 | 9.08632 | 22205 ft | 411 kts | 351° |
| 2026-04-24 11:05 | 49.56253 | 9.07920 | 22203 ft | 410 kts | 351° |
| 2026-04-24 11:05 | 49.59055 | 9.07205 | 22202 ft | 409 kts | 351° |
| 2026-04-24 11:05 | 49.61874 | 9.06485 | 22205 ft | 410 kts | 351° |
| 2026-04-24 11:05 | 49.64690 | 9.05764 | 22206 ft | 406 kts | 350° |
| 2026-04-24 11:06 | 49.67482 | 9.05049 | 22208 ft | 405 kts | 350° |
| 2026-04-24 11:06 | 49.70286 | 9.04332 | 22211 ft | 408 kts | 350° |
| 2026-04-24 11:06 | 49.73100 | 9.03612 | 22209 ft | 413 kts | 350° |
| 2026-04-24 11:06 | 49.75943 | 9.02882 | 22209 ft | 413 kts | 350° |
| 2026-04-24 11:07 | 49.81603 | 9.01426 | 22203 ft | 413 kts | 350° |
| 2026-04-24 11:07 | 49.84440 | 9.00695 | 22206 ft | 412 kts | 350° |
| 2026-04-24 11:07 | 49.87265 | 8.99965 | 22208 ft | 411 kts | 350° |
| 2026-04-24 11:08 | 49.90056 | 8.99244 | 22213 ft | 412 kts | 350° |
| 2026-04-24 11:08 | 49.92885 | 8.98514 | 22213 ft | 413 kts | 350° |
| 2026-04-24 11:08 | 49.95711 | 8.97782 | 22213 ft | 412 kts | 350° |
| 2026-04-24 11:08 | 49.98537 | 8.97048 | 22211 ft | 412 kts | 350° |
| 2026-04-24 11:09 | 50.01365 | 8.96315 | 22212 ft | 412 kts | 350° |
| 2026-04-24 11:09 | 50.04193 | 8.95581 | 22214 ft | 412 kts | 350° |
| 2026-04-24 11:09 | 50.07026 | 8.94843 | 22213 ft | 411 kts | 350° |
| 2026-04-24 11:09 | 50.09824 | 8.94113 | 22211 ft | 410 kts | 350° |
| 2026-04-24 11:10 | 50.12646 | 8.93377 | 22211 ft | 410 kts | 349° |
| 2026-04-24 11:10 | 50.15511 | 8.92626 | 22217 ft | 427 kts | 349° |
| 2026-04-24 11:10 | 50.18503 | 8.91839 | 22211 ft | 445 kts | 349° |
| 2026-04-24 11:10 | 50.21598 | 8.91031 | 22216 ft | 455 kts | 350° |
| 2026-04-24 11:11 | 50.24723 | 8.90216 | 22209 ft | 458 kts | 349° |
| 2026-04-24 11:11 | 50.27873 | 8.89445 | 22208 ft | 460 kts | 352° |
| 2026-04-24 11:11 | 50.31048 | 8.88797 | 22213 ft | 461 kts | 352° |
| 2026-04-24 11:11 | 50.34239 | 8.88132 | 22209 ft | 462 kts | 351° |
| 2026-04-24 11:12 | 50.37426 | 8.87455 | 22212 ft | 462 kts | 351° |
| 2026-04-24 11:12 | 50.40618 | 8.86784 | 22213 ft | 462 kts | 352° |
| 2026-04-24 11:12 | 50.43807 | 8.86121 | 22211 ft | 462 kts | 351° |
| 2026-04-24 11:12 | 50.46998 | 8.85452 | 22209 ft | 462 kts | 351° |
| 2026-04-24 11:13 | 50.50185 | 8.84778 | 22206 ft | 462 kts | 351° |
| 2026-04-24 11:13 | 50.53378 | 8.84103 | 22205 ft | 462 kts | 351° |
| 2026-04-24 11:13 | 50.56529 | 8.83440 | 22210 ft | 463 kts | 351° |
| 2026-04-24 11:13 | 50.59053 | 8.82908 | 22210 ft | 463 kts | 351° |
| 2026-04-24 11:14 | 50.61248 | 8.82495 | 22201 ft | 463 kts | 353° |
| 2026-04-24 11:14 | 50.64474 | 8.82539 | 22193 ft | 465 kts | 3° |
| 2026-04-24 11:14 | 50.67672 | 8.83361 | 22188 ft | 466 kts | 11° |
| 2026-04-24 11:14 | 50.70839 | 8.84483 | 22201 ft | 466 kts | 11° |
| 2026-04-24 11:15 | 50.74011 | 8.85571 | 22210 ft | 466 kts | 11° |
| 2026-04-24 11:15 | 50.77186 | 8.86652 | 22211 ft | 467 kts | 11° |
| 2026-04-24 11:15 | 50.80355 | 8.87757 | 22211 ft | 466 kts | 11° |
| 2026-04-24 11:15 | 50.83523 | 8.88870 | 22215 ft | 466 kts | 11° |
| 2026-04-24 11:16 | 50.85666 | 8.89591 | 22214 ft | 466 kts | 10° |
| 2026-04-24 11:16 | 50.88848 | 8.90596 | 22217 ft | 466 kts | 9° |
| 2026-04-24 11:16 | 50.92037 | 8.91612 | 22220 ft | 466 kts | 10° |
| 2026-04-24 11:16 | 50.95210 | 8.92680 | 22224 ft | 466 kts | 11° |
| 2026-04-24 11:17 | 50.98383 | 8.93750 | 22228 ft | 466 kts | 10° |
| 2026-04-24 11:17 | 51.01564 | 8.94786 | 22229 ft | 466 kts | 10° |
| 2026-04-24 11:17 | 51.04707 | 8.95809 | 22231 ft | 466 kts | 10° |
| 2026-04-24 11:17 | 51.07927 | 8.96817 | 22228 ft | 466 kts | 8° |
| 2026-04-24 11:18 | 51.11079 | 8.97717 | 22233 ft | 465 kts | 9° |
| 2026-04-24 11:18 | 51.14254 | 8.98798 | 22221 ft | 466 kts | 11° |
| 2026-04-24 11:18 | 51.17431 | 8.99880 | 22230 ft | 466 kts | 10° |
| 2026-04-24 11:18 | 51.20602 | 9.00927 | 22234 ft | 466 kts | 10° |
| 2026-04-24 11:19 | 51.23779 | 9.01988 | 22233 ft | 466 kts | 10° |
| 2026-04-24 11:19 | 51.26951 | 9.03071 | 22228 ft | 465 kts | 10° |
| 2026-04-24 11:19 | 51.30110 | 9.04148 | 22239 ft | 456 kts | 10° |
| 2026-04-24 11:19 | 51.33082 | 9.05148 | 22218 ft | 419 kts | 9° |
| 2026-04-24 11:20 | 51.35916 | 9.06100 | 22218 ft | 418 kts | 9° |
| 2026-04-24 11:20 | 51.38747 | 9.07061 | 22221 ft | 416 kts | 9° |
| 2026-04-24 11:20 | 51.41580 | 9.08031 | 22216 ft | 415 kts | 10° |
| 2026-04-24 11:20 | 51.44405 | 9.08994 | 22217 ft | 415 kts | 9° |
| 2026-04-24 11:21 | 51.47226 | 9.09952 | 21763 ft | 411 kts | 9° |
| 2026-04-24 11:21 | 51.49979 | 9.11095 | 21206 ft | 408 kts | 17° |
| 2026-04-24 11:21 | 51.52526 | 9.13073 | 20678 ft | 406 kts | 28° |
| 2026-04-24 11:21 | 51.54876 | 9.15480 | 20169 ft | 403 kts | 30° |
| 2026-04-24 11:22 | 51.57231 | 9.17893 | 19635 ft | 398 kts | 30° |
| 2026-04-24 11:22 | 51.59563 | 9.20258 | 19107 ft | 394 kts | 30° |
| 2026-04-24 11:22 | 51.61870 | 9.22609 | 18592 ft | 390 kts | 30° |
| 2026-04-24 11:22 | 51.64147 | 9.24948 | 18041 ft | 385 kts | 30° |
| 2026-04-24 11:23 | 51.66399 | 9.27261 | 17530 ft | 382 kts | 30° |
| 2026-04-24 11:23 | 51.68633 | 9.29550 | 17034 ft | 379 kts | 30° |
| 2026-04-24 11:23 | 51.70855 | 9.31832 | 16530 ft | 376 kts | 30° |
| 2026-04-24 11:23 | 51.73048 | 9.34089 | 16037 ft | 372 kts | 30° |
| 2026-04-24 11:24 | 51.75221 | 9.36329 | 15545 ft | 370 kts | 30° |
| 2026-04-24 11:24 | 51.77378 | 9.38554 | 15057 ft | 366 kts | 30° |
| 2026-04-24 11:24 | 51.79513 | 9.40761 | 14575 ft | 363 kts | 30° |
| 2026-04-24 11:24 | 51.81602 | 9.42922 | 14104 ft | 360 kts | 30° |
| 2026-04-24 11:25 | 51.83723 | 9.45119 | 13592 ft | 355 kts | 30° |
| 2026-04-24 11:25 | 51.85774 | 9.47245 | 13123 ft | 353 kts | 31° |
| 2026-04-24 11:25 | 51.87830 | 9.49378 | 12667 ft | 350 kts | 31° |
| 2026-04-24 11:25 | 51.89870 | 9.51498 | 12203 ft | 347 kts | 31° |
| 2026-04-24 11:26 | 51.91895 | 9.53603 | 11747 ft | 344 kts | 30° |
| 2026-04-24 11:26 | 51.93873 | 9.55662 | 11295 ft | 327 kts | 30° |
| 2026-04-24 11:26 | 51.95719 | 9.57588 | 10875 ft | 304 kts | 30° |
| 2026-04-24 11:26 | 51.97436 | 9.59378 | 10483 ft | 285 kts | 30° |
| 2026-04-24 11:27 | 51.99072 | 9.61083 | 10110 ft | 276 kts | 30° |
| 2026-04-24 11:27 | 52.00676 | 9.62757 | 9726 ft | 272 kts | 30° |
| 2026-04-24 11:27 | 52.02264 | 9.64417 | 9370 ft | 271 kts | 30° |
| 2026-04-24 11:27 | 52.03842 | 9.66069 | 9016 ft | 270 kts | 30° |
| 2026-04-24 11:28 | 52.05416 | 9.67717 | 8658 ft | 269 kts | 30° |
| 2026-04-24 11:28 | 52.06984 | 9.69363 | 8305 ft | 267 kts | 30° |
| 2026-04-24 11:28 | 52.08539 | 9.70994 | 7956 ft | 266 kts | 30° |
| 2026-04-24 11:28 | 52.10088 | 9.72621 | 7601 ft | 264 kts | 30° |
| 2026-04-24 11:29 | 52.11625 | 9.74236 | 7256 ft | 262 kts | 30° |
| 2026-04-24 11:29 | 52.13154 | 9.75847 | 6912 ft | 261 kts | 30° |
| 2026-04-24 11:29 | 52.14669 | 9.77441 | 6561 ft | 258 kts | 30° |
| 2026-04-24 11:29 | 52.16152 | 9.79005 | 6212 ft | 257 kts | 30° |
| 2026-04-24 11:30 | 52.17650 | 9.80585 | 5871 ft | 255 kts | 30° |
| 2026-04-24 11:30 | 52.19138 | 9.82152 | 5530 ft | 255 kts | 30° |
| 2026-04-24 11:30 | 52.20626 | 9.83718 | 5200 ft | 254 kts | 30° |
| 2026-04-24 11:30 | 52.22101 | 9.85276 | 4859 ft | 252 kts | 30° |
| 2026-04-24 11:31 | 52.23578 | 9.86835 | 4361 ft | 251 kts | 29° |
| 2026-04-24 11:31 | 52.25006 | 9.88361 | 3979 ft | 238 kts | 30° |
| 2026-04-24 11:31 | 52.26201 | 9.90037 | 3967 ft | 216 kts | 37° |
| 2026-04-24 11:31 | 52.27309 | 9.91625 | 3970 ft | 211 kts | 36° |
| 2026-04-24 11:32 | 52.28427 | 9.93202 | 3963 ft | 213 kts | 36° |
| 2026-04-24 11:32 | 52.29550 | 9.94802 | 3972 ft | 215 kts | 37° |
| 2026-04-24 11:32 | 52.30673 | 9.96412 | 3976 ft | 214 kts | 37° |
| 2026-04-24 11:32 | 52.31794 | 9.98018 | 3978 ft | 214 kts | 37° |
| 2026-04-24 11:33 | 52.32906 | 9.99609 | 3983 ft | 215 kts | 37° |
| 2026-04-24 11:33 | 52.34029 | 10.01219 | 3979 ft | 214 kts | 37° |
| 2026-04-24 11:33 | 52.35149 | 10.02825 | 3967 ft | 214 kts | 36° |
| 2026-04-24 11:33 | 52.36286 | 10.04394 | 3957 ft | 211 kts | 31° |
| 2026-04-24 11:34 | 52.37641 | 10.05147 | 3949 ft | 204 kts | 3° |
| 2026-04-24 11:34 | 52.39061 | 10.05263 | 3985 ft | 205 kts | 359° |
| 2026-04-24 11:34 | 52.40488 | 10.05375 | 3987 ft | 205 kts | 0° |
| 2026-04-24 11:34 | 52.41916 | 10.05427 | 3896 ft | 205 kts | 353° |
| 2026-04-24 11:35 | 52.43213 | 10.04596 | 3695 ft | 203 kts | 326° |
| 2026-04-24 11:35 | 52.44153 | 10.02912 | 3536 ft | 202 kts | 302° |
| 2026-04-24 11:35 | 52.44541 | 10.00698 | 3369 ft | 204 kts | 281° |
| 2026-04-24 11:35 | 52.44635 | 9.98381 | 3232 ft | 204 kts | 276° |
| 2026-04-24 11:36 | 52.44699 | 9.96055 | 3059 ft | 204 kts | 276° |
| 2026-04-24 11:36 | 52.44761 | 9.93748 | 2952 ft | 199 kts | 276° |
| 2026-04-24 11:36 | 52.44825 | 9.91457 | 2693 ft | 202 kts | 275° |
| 2026-04-24 11:36 | 52.44889 | 9.89163 | 2410 ft | 199 kts | 274° |
| 2026-04-24 11:37 | 52.44950 | 9.86959 | 2148 ft | 186 kts | 275° |
| 2026-04-24 11:37 | 52.45005 | 9.85066 | 1871 ft | 147 kts | 274° |
| 2026-04-24 11:37 | 52.45047 | 9.83572 | 1688 ft | 118 kts | 275° |
| 2026-04-24 11:37 | 52.45085 | 9.82308 | 1541 ft | 106 kts | 275° |
| 2026-04-24 11:38 | 52.45119 | 9.81118 | 1421 ft | 104 kts | 276° |
| 2026-04-24 11:38 | 52.45155 | 9.79911 | 1285 ft | 107 kts | 276° |
| 2026-04-24 11:38 | 52.45182 | 9.78700 | 1131 ft | 107 kts | 275° |
| 2026-04-24 11:38 | 52.45222 | 9.77503 | 970 ft | 104 kts | 276° |
| 2026-04-24 11:39 | 52.45276 | 9.76285 | 795 ft | 111 kts | 275° |
| 2026-04-24 11:39 | 52.45296 | 9.75026 | 661 ft | 112 kts | 273° |
| 2026-04-24 11:39 | 52.45332 | 9.73731 | 543 ft | 116 kts | 273° |
| 2026-04-24 11:39 | 52.45368 | 9.72391 | 402 ft | 119 kts | 272° |
| 2026-04-24 11:40 | 52.45402 | 9.71043 | 218 ft | 114 kts | 275° |
| 2026-04-24 11:40 | 52.45436 | 9.69938 | 181 ft | 69 kts | 273° |
| 2026-04-24 11:40 | 52.45452 | 9.69410 | 184 ft | 35 kts | 272° |
| 2026-04-24 11:40 | 52.45466 | 9.69157 | 189 ft | 11 kts | 304° |
| 2026-04-24 11:41 | 52.45527 | 9.69135 | 186 ft | 8 kts | 4° |
| 2026-04-24 11:41 | 52.45569 | 9.69139 | 187 ft | 0 kts | 3° |
| 2026-04-24 11:42 | 52.45571 | 9.69139 | 187 ft | 2 kts | 3° |
| 2026-04-24 11:42 | 52.45626 | 9.69143 | 187 ft | 11 kts | 2° |
| 2026-04-24 11:42 | 52.45688 | 9.69146 | 188 ft | 7 kts | 2° |
| 2026-04-24 11:42 | 52.45760 | 9.69124 | 194 ft | 15 kts | 327° |
| 2026-04-24 11:43 | 52.45798 | 9.68995 | 195 ft | 13 kts | 242° |
| 2026-04-24 11:43 | 52.45771 | 9.68911 | 193 ft | 5 kts | 198° |
| 2026-04-24 11:43 | 52.45719 | 9.68915 | 194 ft | 6 kts | 180° |
| 2026-04-24 11:43 | 52.45719 | 9.68881 | 192 ft | 5 kts | 316° |
| 2026-04-24 11:44 | 52.45723 | 9.68875 | 192 ft | 0 kts | 318° |